Flight Track Log - Related Links

Times and Time Zones

All times are in EDT time to prevent confusion due to time zone crossing. See the SWA1319 flight status page for this flight to view local times or setup timezone preferences in your user account.

Time Position Orientation Groundspeed Altitude Reporting Facility
EDT Latitude Longitude Course Direction KTS MPH feet Rate Location/Type
Fri 01:43:04 PM 33.5222 -86.8494 244° Southwest 217 250 4,600  Level Atlanta Center
Fri 01:44:05 PM 33.5247 -86.9244 272° West 218 251 7,300 3,174 Climbing Atlanta Center
Fri 01:45:05 PM 33.5206 -87.0039 266° West 240 276 11,000 2,200 Climbing Atlanta Center
Fri 01:46:05 PM 33.5206 -87.0961 270° West 254 292 11,700 1,700 Climbing Atlanta Center
Fri 01:47:05 PM 33.5178 -87.2031 268° West 292 336 14,400 2,346 Climbing Atlanta Center
Fri 01:48:41 PM 33.5153 -87.3897 269° West 364 419 17,800 2,077 Climbing Memphis Center
Fri 01:49:41 PM 33.5097 -87.5044 267° West 364 419 19,800 1,950 Climbing Memphis Center
Fri 01:50:41 PM 33.5081 -87.6242 269° West 364 419 21,700 1,800 Climbing Memphis Center
Fri 01:51:41 PM 33.5044 -87.7439 268° West 364 419 23,400 1,850 Climbing Memphis Center
Fri 01:52:41 PM 33.5006 -87.8636 268° West 364 419 25,400 1,650 Climbing Memphis Center
Fri 01:53:41 PM 33.4986 -87.9808 269° West 364 419 26,700 1,850 Climbing Memphis Center
Fri 01:54:41 PM 33.4947 -88.0978 268° West 364 419 29,100 1,667 Climbing Memphis Center
Fri 01:56:00 PM 33.4983 -88.2327 272° West  Level FlightAware Approximate
Fri 01:56:41 PM 33.4922 -88.3247 272° West 348 400 31,700  Level Memphis Center
Fri 01:57:41 PM 33.4878 -88.4367 267° West 348 400 32,800 1,150 Climbing Memphis Center
Fri 01:58:41 PM 33.4853 -88.5489 269° West 348 400 34,000 1,200 Climbing Memphis Center
Fri 01:59:41 PM 33.4869 -88.6611 271° West 348 400 35,200 1,000 Climbing Memphis Center
Fri 02:00:41 PM 33.4864 -88.7681 270° West 342 394 36,000 400 Climbing Memphis Center
Fri 02:01:41 PM 33.4833 -88.8653 268° West 335 386 36,000  Level Memphis Center
Fri 02:02:41 PM 33.4825 -88.9750 270° West 330 380 36,000  Level Memphis Center
Fri 02:03:41 PM 33.4817 -89.0844 270° West 330 380 36,000  Level Memphis Center
Fri 02:04:41 PM 33.4825 -89.1917 271° West 330 380 36,000  Level Memphis Center
Fri 02:05:41 PM 33.4794 -89.3011 268° West 330 380 36,000  Level Memphis Center
Fri 02:06:41 PM 33.4783 -89.4133 269° West 330 380 36,000  Level Memphis Center
Fri 02:07:41 PM 33.4769 -89.5253 269° West 330 380 36,000  Level Memphis Center
Fri 02:08:41 PM 33.4736 -89.6350 268° West 335 386 36,000  Level Memphis Center
Fri 02:09:41 PM 33.4719 -89.7472 269° West 335 386 36,000  Level Memphis Center
Fri 02:10:41 PM 33.4392 -89.8469 249° West 330 380 36,000  Level Memphis Center
Fri 02:11:41 PM 33.3997 -89.9442 244° Southwest 323 372 36,000  Level Memphis Center
Fri 02:12:41 PM 33.3583 -90.0414 243° Southwest 323 372 36,000  Level Memphis Center
Fri 02:13:41 PM 33.3147 -90.1483 244° Southwest 323 372 36,000  Level Memphis Center
Fri 02:14:41 PM 33.2753 -90.2431 244° Southwest 323 372 36,000  Level Memphis Center
Fri 02:15:41 PM 33.2356 -90.3375 243° Southwest 323 372 36,000  Level Memphis Center
Fri 02:16:41 PM 33.1939 -90.4367 243° Southwest 323 372 36,000  Level Memphis Center
Fri 02:17:41 PM 33.1542 -90.5333 244° Southwest 323 372 36,000  Level Memphis Center
Fri 02:18:41 PM 33.1122 -90.6300 243° Southwest 323 372 36,000  Level Memphis Center
Fri 02:19:41 PM 33.0722 -90.7317 245° Southwest 323 372 36,000  Level Memphis Center
Fri 02:20:41 PM 33.0322 -90.8281 244° Southwest 323 372 36,000  Level Memphis Center
Fri 02:21:41 PM 32.9900 -90.9244 242° Southwest 323 372 36,000  Level Memphis Center
Fri 02:22:41 PM 32.9478 -91.0233 243° Southwest 323 372 36,000  Level Memphis Center
Fri 02:23:41 PM 32.9056 -91.1219 243° Southwest 323 372 36,000  Level Memphis Center
Fri 02:24:41 PM 32.8631 -91.2206 243° Southwest 328 377 36,000  Level Memphis Center
Fri 02:26:27 PM 32.7953 -91.3864 244° Southwest 326 375 36,000  Level Fort Worth Center
Fri 02:27:27 PM 32.7561 -91.4828 244° Southwest 331 381 36,000  Level Fort Worth Center
Fri 02:28:27 PM 32.7275 -91.5861 252° West 332 382 36,000  Level Fort Worth Center
Fri 02:29:27 PM 32.7119 -91.6981 261° West 332 382 36,000  Level Fort Worth Center
Fri 02:30:27 PM 32.6961 -91.8128 261° West 332 382 36,000  Level Fort Worth Center
Fri 02:31:27 PM 32.6781 -91.9222 259° West 332 382 36,000  Level Fort Worth Center
Fri 02:32:27 PM 32.6672 -92.0069 261° West 337 388 36,000  Level Fort Worth Center
Fri 02:33:27 PM 32.6453 -92.1292 258° West 337 388 36,000  Level Fort Worth Center
Fri 02:34:27 PM 32.6289 -92.2386 260° West 344 396 36,000  Level Fort Worth Center
Fri 02:35:27 PM 32.6122 -92.3456 260° West 339 390 36,000  Level Fort Worth Center
Fri 02:36:27 PM 32.5936 -92.4525 258° West 339 390 36,000  Level Fort Worth Center
Fri 02:37:27 PM 32.5769 -92.5569 259° West 332 382 36,000  Level Fort Worth Center
Fri 02:38:27 PM 32.5578 -92.6614 258° West 332 382 36,000  Level Fort Worth Center
Fri 02:39:27 PM 32.5411 -92.7708 260° West 337 388 36,000  Level Fort Worth Center
Fri 02:40:27 PM 32.5222 -92.8803 258° West 337 388 36,000  Level Fort Worth Center
Fri 02:41:27 PM 32.5031 -92.9869 258° West 337 388 36,000  Level Fort Worth Center
Fri 02:42:27 PM 32.4858 -93.0961 259° West 337 388 36,000  Level Fort Worth Center
Fri 02:43:27 PM 32.4686 -93.2006 259° West 337 388 36,000  Level Fort Worth Center
Fri 02:44:27 PM 32.4492 -93.3072 258° West 337 388 36,000  Level Fort Worth Center
Fri 02:45:27 PM 32.4317 -93.4139 259° West 337 388 36,000  Level Fort Worth Center
Fri 02:46:27 PM 32.4119 -93.5181 257° West 337 388 36,000  Level Fort Worth Center
Fri 02:47:27 PM 32.3986 -93.6269 262° West 337 388 36,000  Level Fort Worth Center
Fri 02:48:27 PM 32.4039 -93.7350 273° West 337 388 36,000  Level Fort Worth Center
Fri 02:49:27 PM 32.4031 -93.8456 270° West 337 388 36,000  Level Fort Worth Center
Fri 02:50:27 PM 32.4039 -93.9589 271° West 337 388 36,000  Level Fort Worth Center
Fri 02:51:27 PM 32.4069 -94.0669 272° West 337 388 36,000  Level Fort Worth Center
Fri 02:52:27 PM 32.4078 -94.1775 271° West 337 388 36,000  Level Fort Worth Center
Fri 02:53:27 PM 32.4106 -94.2883 272° West 337 388 36,000  Level Fort Worth Center
Fri 02:54:27 PM 32.4111 -94.3964 270° West 337 388 36,000  Level Fort Worth Center
Fri 02:55:27 PM 32.4114 -94.5047 270° West 337 388 36,000  Level Fort Worth Center
Fri 02:56:27 PM 32.4142 -94.6178 272° West 337 388 36,000 -400 Level Fort Worth Center
Fri 02:57:27 PM 32.4144 -94.7286 270° West 337 388 35,200 -900 Descending Fort Worth Center
Fri 02:58:27 PM 32.4003 -94.8469 262° West 344 396 34,200 -950 Descending Fort Worth Center
Fri 02:59:27 PM 32.3836 -94.9533 260° West 338 389 33,300 -900 Descending Fort Worth Center
Fri 03:00:27 PM 32.3708 -95.0544 262° West 338 389 32,400 -800 Descending Fort Worth Center
Fri 03:01:27 PM 32.3583 -95.1706 263° West 333 383 31,700 -800 Descending Fort Worth Center
Fri 03:02:27 PM 32.3372 -95.2792 257° West 339 390 30,800 -1,250 Descending Fort Worth Center
Fri 03:03:27 PM 32.3222 -95.3853 261° West 334 384 29,200 -2,150 Descending Fort Worth Center
Fri 03:04:27 PM 32.3075 -95.4986 261° West 334 384 26,500 -2,850 Descending Fort Worth Center
Fri 03:05:27 PM 32.3422 -95.6036 291° West 334 384 23,500 -2,700 Descending Fort Worth Center
Fri 03:06:27 PM 32.3731 -95.7089 289° West 339 390 21,100 -2,300 Descending Fort Worth Center
Fri 03:07:27 PM 32.4036 -95.8092 290° West 339 390 18,900 -1,950 Descending Fort Worth Center
Fri 03:08:27 PM 32.4339 -95.9044 291° West 322 371 17,200 -1,800 Descending Fort Worth Center
Fri 03:09:27 PM 32.4578 -95.9878 289° West 310 357 15,300 -2,000 Descending Fort Worth Center
Fri 03:10:27 PM 32.4883 -96.0883 290° West 298 343 13,200 -1,950 Descending Fort Worth Center
Fri 03:11:27 PM 32.5119 -96.1692 289° West 293 337 11,400 -1,650 Descending Fort Worth Center
Fri 03:12:27 PM 32.5275 -96.2678 281° West 281 323 9,900 -1,200 Descending Fort Worth Center
Fri 03:13:27 PM 32.5533 -96.3436 292° West 261 300 9,000 -1,000 Descending Fort Worth Center
Fri 03:14:27 PM 32.5811 -96.4197 293° West 251 289 7,900 -1,000 Descending Fort Worth Center
Fri 03:15:27 PM 32.6067 -96.4961 292° West 251 289 7,000 -1,100 Descending Fort Worth Center
Fri 03:16:27 PM 32.6322 -96.5697 292° West 251 289 5,700 -850 Descending Fort Worth Center
Fri 03:17:27 PM 32.6556 -96.6411 291° West 246 283 5,300 -667 Descending Fort Worth Center
Fri 03:18:15 PM 32.6833 -96.6833 308° West 207 238 4,500 -991 Descending Dallas / Fort Worth TRACON
Fri 03:19:16 PM 32.7333 -96.7167 331° Northwest 197 227 3,500 -1,041 Descending Dallas / Fort Worth TRACON
Fri 03:20:16 PM 32.7667 -96.7667 308° West 176 203 2,400 -857 Descending Dallas / Fort Worth TRACON
Fri 03:21:22 PM 32.8000 -96.8000 320° Northwest 138 159 1,700 -750 Descending Dallas / Fort Worth TRACON
Fri 03:22:16 PM 32.8167 -96.8333 301° West 139 160 900 -889 Descending Dallas / Fort Worth TRACON

Login

Don't have an account? Register now (free) for customized features, flight alerts, and more!